Airfield :
LOGIN :

Register | Disclaimer

   EN    FR    IT 

 










Legend :    VFR   Marginal VFR   IFR   Intensive IFR   Very Intensive IFR
Visi :
Ceiling :
>= 8 km
>= 3000ft
5 to 8 km
1000 to 3000 ft
1500m to 5 km
500 to 1000 ft
800 to 1500m
200 to 500 ft
< 800m
< 200 ft
Symbols :   Thunderstorms  Fog  Heavy snow  Heavy precipitations  Wind > 20 kt
SIGMETs :     Misc.  Thunderstorms  Icing  Turbulence  Mountain Waves  Volcanic Ashes







- Airport Elevation : 1325 ft
- IATA code : EBU
- Download approach charts


LFMH - St-Etienne Boutheon

CURRENT METAR :
  • 141430Z AUTO 25006KT 180V280 CAVOK 11/04 Q1005 BECMG 22015G25KT

EXPIRED METARs :
  • 141400Z AUTO 22009KT 180V270 9999 FEW058 11/04 Q1005 BECMG 18015G25KT
  • 141330Z AUTO 24010KT 180V280 9999 FEW052/// BKN084/// BKN140/// ///TCU 11/04 Q1006 BECMG 18015G25KT SCT050 OVC070
  • 141300Z AUTO 25011KT 200V300 9999 SCT035/// BKN088/// BKN110/// ///TCU 11/03 Q1006 BECMG SCT050 OVC070
  • 141230Z AUTO 24007KT 190V270 9999 FEW035 12/04 Q1007 NOSIG
  • 141200Z AUTO 25009KT 9999 FEW027/// BKN040/// BKN054/// ///TCU 11/03 Q1008 BECMG SCT050 OVC070

TAF TAF LFMH
Valid from the 14 at 15:00 until the 15 at 15:00 UTC


141400Z 1415/1515 22010KT 9999 SCT050
BECMG 1415/1418 22015G25KT
BECMG 1421/1424 36010KT RA SCT030 OVC040
BECMG 1502/1504 18008KT CAVOK
BECMG 1509/1512 28006KT
ATIS : +33 4 77 36 17 51
No reported NOTAMs for that airfield.
4 SIGMETs reported for the Marseille FIR (LFMM) :
 
Severe turbulence
LFMM SIGMET 9 VALID 141430/141830 LFPW
LFMM MARSEILLE FIR/UIR SEV TURB FCST WI N4345 E00245 - N4630 E00300 - N4630 E00315 - N4415 E00415 - N4330 E00245 - N4345 E00245 SFC/FL080 STNR INTSF=
Severe turbulence
LFMM SIGMET 8 VALID 141400/141700 LFPW
LFMM MARSEILLE FIR/UIR SEV TURB FCST WI N4345 E00730 - N4315 E00945 - N4115 E00945 - N4115 E00900 - N4230 E00845 - N4330 E00700 - N4345 E00730 SFC/FL060 STNR NC=
Severe turbulence
LFMM SIGMET 7 VALID 141300/141500 LFPW
LFMM MARSEILLE FIR/UIR SEV TURB OBS AT 1300Z WI N4630 E00315 - N4630 E00530 - N4545 E00530 - N4600 E00315 - N4630 E00315 FL160/250 STNR NC=
Severe mountain waves
LFMM SIGMET 6 VALID 141300/141700 LFPW
LFMM MARSEILLE FIR/UIR SEV MTW FCST E OF E00845 SFC/FL320 STNR NC=



MET'MAP, your aeronautical weather chart ! - Copyright ORBIFLY December 2007 - Disclaimer

ORBIFLY MET'MAP TEAM :

Programming & Development : Alexandra Zaïnal
Concept & Development : Baudouin d'Aumeries
Co-Development & Prog : Marc-Olivier Méhu
Technical & hardware support : Manuel Goepfert

Contact : metmap@orbifly.com




SOURCES & CREDITS :

   NOAA